sensor_id;sensor_type;location;lat;lon;timestamp;P1;durP1;ratioP1;P2;durP2;ratioP2
70729;SDS011;58315;53.336;55.932;2023-03-14T00:01:12;13.40;;;3.72;;
70729;SDS011;58315;53.336;55.932;2023-03-14T00:03:43;19.27;;;4.68;;
70729;SDS011;58315;53.336;55.932;2023-03-14T00:06:09;16.17;;;4.00;;
70729;SDS011;58315;53.336;55.932;2023-03-14T00:08:36;20.63;;;4.78;;
70729;SDS011;58315;53.336;55.932;2023-03-14T00:11:35;20.23;;;3.75;;
70729;SDS011;58315;53.336;55.932;2023-03-14T00:13:55;13.52;;;4.63;;
70729;SDS011;58315;53.336;55.932;2023-03-14T00:16:21;15.15;;;3.78;;
70729;SDS011;58315;53.336;55.932;2023-03-14T00:18:47;11.57;;;4.63;;
70729;SDS011;58315;53.336;55.932;2023-03-14T00:21:13;15.00;;;4.22;;
70729;SDS011;58315;53.336;55.932;2023-03-14T00:23:40;12.88;;;3.28;;
70729;SDS011;58315;53.336;55.932;2023-03-14T00:26:11;8.52;;;2.85;;
70729;SDS011;58315;53.336;55.932;2023-03-14T00:28:40;5.80;;;2.95;;
70729;SDS011;58315;53.336;55.932;2023-03-14T00:31:09;8.50;;;3.40;;
70729;SDS011;58315;53.336;55.932;2023-03-14T00:33:36;6.78;;;2.50;;
70729;SDS011;58315;53.336;55.932;2023-03-14T00:36:03;6.72;;;2.30;;
70729;SDS011;58315;53.336;55.932;2023-03-14T00:38:32;4.13;;;1.92;;
70729;SDS011;58315;53.336;55.932;2023-03-14T00:40:58;3.50;;;1.85;;
70729;SDS011;58315;53.336;55.932;2023-03-14T00:43:25;3.15;;;1.42;;
70729;SDS011;58315;53.336;55.932;2023-03-14T00:45:51;4.55;;;2.15;;
70729;SDS011;58315;53.336;55.932;2023-03-14T00:48:18;4.50;;;1.92;;
70729;SDS011;58315;53.336;55.932;2023-03-14T00:50:45;8.38;;;2.50;;
70729;SDS011;58315;53.336;55.932;2023-03-14T00:53:14;4.05;;;2.63;;
70729;SDS011;58315;53.336;55.932;2023-03-14T00:55:41;9.88;;;3.20;;
70729;SDS011;58315;53.336;55.932;2023-03-14T00:58:08;9.50;;;4.57;;
70729;SDS011;58315;53.336;55.932;2023-03-14T01:00:35;11.57;;;5.45;;
70729;SDS011;58315;53.336;55.932;2023-03-14T01:03:01;13.65;;;5.45;;
70729;SDS011;58315;53.336;55.932;2023-03-14T01:05:28;13.90;;;5.60;;
70729;SDS011;58315;53.336;55.932;2023-03-14T01:07:54;9.95;;;5.93;;
70729;SDS011;58315;53.336;55.932;2023-03-14T01:10:20;12.57;;;7.22;;
70729;SDS011;58315;53.336;55.932;2023-03-14T01:12:46;12.27;;;6.63;;
70729;SDS011;58315;53.336;55.932;2023-03-14T01:15:12;11.40;;;6.28;;
70729;SDS011;58315;53.336;55.932;2023-03-14T01:17:38;10.52;;;4.43;;
70729;SDS011;58315;53.336;55.932;2023-03-14T01:20:06;6.90;;;3.95;;
70729;SDS011;58315;53.336;55.932;2023-03-14T01:22:36;7.47;;;3.45;;
70729;SDS011;58315;53.336;55.932;2023-03-14T01:25:06;9.73;;;3.57;;
70729;SDS011;58315;53.336;55.932;2023-03-14T01:27:34;5.93;;;2.60;;
70729;SDS011;58315;53.336;55.932;2023-03-14T01:30:00;8.00;;;2.90;;
70729;SDS011;58315;53.336;55.932;2023-03-14T01:32:26;5.32;;;2.47;;
70729;SDS011;58315;53.336;55.932;2023-03-14T01:34:52;6.32;;;2.63;;
70729;SDS011;58315;53.336;55.932;2023-03-14T01:37:19;5.68;;;2.95;;
70729;SDS011;58315;53.336;55.932;2023-03-14T01:39:46;7.13;;;3.08;;
70729;SDS011;58315;53.336;55.932;2023-03-14T01:42:13;10.15;;;3.53;;
70729;SDS011;58315;53.336;55.932;2023-03-14T01:47:20;12.48;;;4.20;;
70729;SDS011;58315;53.336;55.932;2023-03-14T01:49:47;16.23;;;3.72;;
70729;SDS011;58315;53.336;55.932;2023-03-14T01:52:29;10.20;;;2.95;;
70729;SDS011;58315;53.336;55.932;2023-03-14T01:55:01;7.97;;;2.97;;
70729;SDS011;58315;53.336;55.932;2023-03-14T01:57:41;4.10;;;2.35;;
70729;SDS011;58315;53.336;55.932;2023-03-14T02:00:12;6.53;;;2.53;;
70729;SDS011;58315;53.336;55.932;2023-03-14T02:02:43;5.28;;;2.30;;
70729;SDS011;58315;53.336;55.932;2023-03-14T02:05:15;7.15;;;2.63;;
70729;SDS011;58315;53.336;55.932;2023-03-14T02:10:27;4.28;;;2.13;;
70729;SDS011;58315;53.336;55.932;2023-03-14T02:12:59;4.63;;;2.40;;
70729;SDS011;58315;53.336;55.932;2023-03-14T02:15:48;4.10;;;2.28;;
70729;SDS011;58315;53.336;55.932;2023-03-14T02:18:50;5.60;;;1.95;;
70729;SDS011;58315;53.336;55.932;2023-03-14T02:21:52;4.32;;;2.20;;
70729;SDS011;58315;53.336;55.932;2023-03-14T02:24:30;3.33;;;1.83;;
70729;SDS011;58315;53.336;55.932;2023-03-14T02:29:57;3.25;;;1.85;;
70729;SDS011;58315;53.336;55.932;2023-03-14T02:32:27;3.28;;;1.85;;
70729;SDS011;58315;53.336;55.932;2023-03-14T02:34:56;3.70;;;1.92;;
70729;SDS011;58315;53.336;55.932;2023-03-14T02:37:48;11.45;;;2.63;;
70729;SDS011;58315;53.336;55.932;2023-03-14T02:40:11;6.22;;;3.45;;
70729;SDS011;58315;53.336;55.932;2023-03-14T02:42:39;6.53;;;2.45;;
70729;SDS011;58315;53.336;55.932;2023-03-14T02:47:37;15.25;;;4.13;;
70729;SDS011;58315;53.336;55.932;2023-03-14T02:50:09;17.70;;;4.82;;
70729;SDS011;58315;53.336;55.932;2023-03-14T02:52:39;14.52;;;4.10;;
70729;SDS011;58315;53.336;55.932;2023-03-14T02:55:06;14.60;;;4.47;;
70729;SDS011;58315;53.336;55.932;2023-03-14T02:57:33;16.08;;;3.67;;
70729;SDS011;58315;53.336;55.932;2023-03-14T03:00:00;12.55;;;3.72;;
70729;SDS011;58315;53.336;55.932;2023-03-14T03:02:32;16.70;;;4.07;;
70729;SDS011;58315;53.336;55.932;2023-03-14T03:04:58;15.60;;;4.43;;
70729;SDS011;58315;53.336;55.932;2023-03-14T03:07:24;11.38;;;3.88;;
70729;SDS011;58315;53.336;55.932;2023-03-14T03:09:51;12.25;;;4.95;;
70729;SDS011;58315;53.336;55.932;2023-03-14T03:12:17;12.15;;;3.90;;
70729;SDS011;58315;53.336;55.932;2023-03-14T03:14:44;9.32;;;4.47;;
70729;SDS011;58315;53.336;55.932;2023-03-14T03:17:10;21.42;;;5.22;;
70729;SDS011;58315;53.336;55.932;2023-03-14T03:19:37;19.98;;;5.10;;
70729;SDS011;58315;53.336;55.932;2023-03-14T03:22:03;14.27;;;4.88;;
70729;SDS011;58315;53.336;55.932;2023-03-14T03:24:29;10.30;;;3.03;;
70729;SDS011;58315;53.336;55.932;2023-03-14T03:26:55;13.32;;;3.47;;
70729;SDS011;58315;53.336;55.932;2023-03-14T03:29:21;4.45;;;2.42;;
70729;SDS011;58315;53.336;55.932;2023-03-14T03:31:47;14.48;;;3.17;;
70729;SDS011;58315;53.336;55.932;2023-03-14T03:34:14;12.82;;;3.15;;
70729;SDS011;58315;53.336;55.932;2023-03-14T03:36:41;9.48;;;3.40;;
70729;SDS011;58315;53.336;55.932;2023-03-14T03:39:07;12.90;;;3.67;;
70729;SDS011;58315;53.336;55.932;2023-03-14T03:41:33;10.88;;;2.90;;
70729;SDS011;58315;53.336;55.932;2023-03-14T03:44:00;17.02;;;4.50;;
70729;SDS011;58315;53.336;55.932;2023-03-14T03:46:26;12.13;;;4.90;;
70729;SDS011;58315;53.336;55.932;2023-03-14T03:48:55;8.43;;;3.72;;
70729;SDS011;58315;53.336;55.932;2023-03-14T03:51:22;17.10;;;4.97;;
70729;SDS011;58315;53.336;55.932;2023-03-14T03:53:48;10.60;;;3.95;;
70729;SDS011;58315;53.336;55.932;2023-03-14T03:56:18;18.10;;;4.78;;
70729;SDS011;58315;53.336;55.932;2023-03-14T03:58:44;18.42;;;4.03;;
70729;SDS011;58315;53.336;55.932;2023-03-14T04:01:10;26.70;;;4.53;;
70729;SDS011;58315;53.336;55.932;2023-03-14T04:03:37;23.02;;;4.80;;
70729;SDS011;58315;53.336;55.932;2023-03-14T04:06:07;28.55;;;5.50;;
70729;SDS011;58315;53.336;55.932;2023-03-14T04:08:37;19.63;;;4.35;;
70729;SDS011;58315;53.336;55.932;2023-03-14T04:11:04;14.98;;;4.95;;
70729;SDS011;58315;53.336;55.932;2023-03-14T04:13:51;9.88;;;3.85;;
70729;SDS011;58315;53.336;55.932;2023-03-14T04:16:19;15.32;;;4.78;;
70729;SDS011;58315;53.336;55.932;2023-03-14T04:18:47;14.15;;;4.88;;
70729;SDS011;58315;53.336;55.932;2023-03-14T04:21:14;10.38;;;4.18;;
70729;SDS011;58315;53.336;55.932;2023-03-14T04:23:45;10.93;;;4.40;;
70729;SDS011;58315;53.336;55.932;2023-03-14T04:26:11;10.18;;;4.55;;
70729;SDS011;58315;53.336;55.932;2023-03-14T04:28:37;7.95;;;2.70;;
70729;SDS011;58315;53.336;55.932;2023-03-14T04:31:15;5.30;;;2.38;;
70729;SDS011;58315;53.336;55.932;2023-03-14T04:33:46;4.40;;;2.55;;
70729;SDS011;58315;53.336;55.932;2023-03-14T04:36:14;7.85;;;2.50;;
70729;SDS011;58315;53.336;55.932;2023-03-14T04:38:41;5.78;;;2.08;;
70729;SDS011;58315;53.336;55.932;2023-03-14T04:41:08;8.85;;;2.38;;
70729;SDS011;58315;53.336;55.932;2023-03-14T04:43:35;10.27;;;2.17;;
70729;SDS011;58315;53.336;55.932;2023-03-14T04:46:05;3.27;;;2.00;;
70729;SDS011;58315;53.336;55.932;2023-03-14T04:48:31;7.75;;;2.80;;
70729;SDS011;58315;53.336;55.932;2023-03-14T04:50:58;5.57;;;2.10;;
70729;SDS011;58315;53.336;55.932;2023-03-14T04:53:27;4.30;;;2.50;;
70729;SDS011;58315;53.336;55.932;2023-03-14T04:55:55;7.30;;;2.42;;
70729;SDS011;58315;53.336;55.932;2023-03-14T04:58:23;8.95;;;2.60;;
70729;SDS011;58315;53.336;55.932;2023-03-14T05:00:51;4.88;;;2.78;;
70729;SDS011;58315;53.336;55.932;2023-03-14T05:03:35;4.43;;;1.88;;
70729;SDS011;58315;53.336;55.932;2023-03-14T05:06:21;5.97;;;2.05;;
70729;SDS011;58315;53.336;55.932;2023-03-14T05:08:50;5.00;;;2.42;;
70729;SDS011;58315;53.336;55.932;2023-03-14T05:11:30;6.73;;;2.97;;
70729;SDS011;58315;53.336;55.932;2023-03-14T05:14:00;6.22;;;2.65;;
70729;SDS011;58315;53.336;55.932;2023-03-14T05:16:47;6.20;;;2.95;;
70729;SDS011;58315;53.336;55.932;2023-03-14T05:19:25;6.07;;;2.83;;
70729;SDS011;58315;53.336;55.932;2023-03-14T05:22:09;6.72;;;2.90;;
70729;SDS011;58315;53.336;55.932;2023-03-14T05:25:05;11.27;;;3.38;;
70729;SDS011;58315;53.336;55.932;2023-03-14T05:28:10;7.38;;;2.92;;
70729;SDS011;58315;53.336;55.932;2023-03-14T05:31:05;4.10;;;2.53;;
70729;SDS011;58315;53.336;55.932;2023-03-14T05:33:46;7.20;;;2.90;;
70729;SDS011;58315;53.336;55.932;2023-03-14T05:36:23;6.20;;;2.90;;
70729;SDS011;58315;53.336;55.932;2023-03-14T05:38:52;9.73;;;3.20;;
70729;SDS011;58315;53.336;55.932;2023-03-14T05:41:47;7.68;;;2.70;;
70729;SDS011;58315;53.336;55.932;2023-03-14T05:44:29;5.82;;;2.75;;
70729;SDS011;58315;53.336;55.932;2023-03-14T05:47:04;6.78;;;3.05;;
70729;SDS011;58315;53.336;55.932;2023-03-14T05:49:49;5.90;;;2.72;;
70729;SDS011;58315;53.336;55.932;2023-03-14T05:52:35;6.18;;;2.78;;
70729;SDS011;58315;53.336;55.932;2023-03-14T05:55:33;4.63;;;2.58;;
70729;SDS011;58315;53.336;55.932;2023-03-14T05:58:29;10.95;;;3.50;;
70729;SDS011;58315;53.336;55.932;2023-03-14T06:00:57;8.80;;;2.78;;
70729;SDS011;58315;53.336;55.932;2023-03-14T06:03:44;7.28;;;2.45;;
70729;SDS011;58315;53.336;55.932;2023-03-14T06:06:10;5.90;;;2.80;;
70729;SDS011;58315;53.336;55.932;2023-03-14T06:08:36;13.10;;;3.65;;
70729;SDS011;58315;53.336;55.932;2023-03-14T06:11:03;9.13;;;3.50;;
70729;SDS011;58315;53.336;55.932;2023-03-14T06:13:30;5.30;;;2.35;;
70729;SDS011;58315;53.336;55.932;2023-03-14T06:15:56;6.40;;;3.08;;
70729;SDS011;58315;53.336;55.932;2023-03-14T06:18:22;4.32;;;2.33;;
70729;SDS011;58315;53.336;55.932;2023-03-14T06:20:48;6.05;;;3.05;;
70729;SDS011;58315;53.336;55.932;2023-03-14T06:23:22;7.47;;;2.40;;
70729;SDS011;58315;53.336;55.932;2023-03-14T06:25:49;7.10;;;2.75;;
70729;SDS011;58315;53.336;55.932;2023-03-14T06:28:15;7.57;;;2.70;;
70729;SDS011;58315;53.336;55.932;2023-03-14T06:30:41;5.75;;;2.33;;
70729;SDS011;58315;53.336;55.932;2023-03-14T06:33:09;6.13;;;2.28;;
70729;SDS011;58315;53.336;55.932;2023-03-14T06:35:35;4.13;;;2.20;;
70729;SDS011;58315;53.336;55.932;2023-03-14T06:38:02;7.57;;;2.67;;
70729;SDS011;58315;53.336;55.932;2023-03-14T06:40:28;8.32;;;2.50;;
70729;SDS011;58315;53.336;55.932;2023-03-14T06:43:04;5.07;;;2.50;;
70729;SDS011;58315;53.336;55.932;2023-03-14T06:45:32;5.88;;;2.55;;
70729;SDS011;58315;53.336;55.932;2023-03-14T06:48:00;5.72;;;2.67;;
70729;SDS011;58315;53.336;55.932;2023-03-14T06:50:35;6.18;;;2.85;;
70729;SDS011;58315;53.336;55.932;2023-03-14T06:53:02;4.55;;;2.35;;
70729;SDS011;58315;53.336;55.932;2023-03-14T06:55:29;4.68;;;2.00;;
70729;SDS011;58315;53.336;55.932;2023-03-14T06:57:55;5.35;;;2.28;;
70729;SDS011;58315;53.336;55.932;2023-03-14T07:00:21;6.32;;;2.80;;
70729;SDS011;58315;53.336;55.932;2023-03-14T07:02:49;6.43;;;2.70;;
70729;SDS011;58315;53.336;55.932;2023-03-14T07:05:41;4.03;;;2.30;;
70729;SDS011;58315;53.336;55.932;2023-03-14T07:08:08;4.50;;;1.83;;
70729;SDS011;58315;53.336;55.932;2023-03-14T07:10:34;4.03;;;2.15;;
70729;SDS011;58315;53.336;55.932;2023-03-14T07:13:01;4.25;;;2.17;;
70729;SDS011;58315;53.336;55.932;2023-03-14T07:15:30;4.07;;;2.00;;
70729;SDS011;58315;53.336;55.932;2023-03-14T07:18:02;4.13;;;2.20;;
70729;SDS011;58315;53.336;55.932;2023-03-14T07:20:28;3.60;;;2.00;;
70729;SDS011;58315;53.336;55.932;2023-03-14T07:22:56;4.15;;;1.85;;
70729;SDS011;58315;53.336;55.932;2023-03-14T07:25:34;3.72;;;2.05;;
70729;SDS011;58315;53.336;55.932;2023-03-14T07:28:00;5.10;;;1.83;;
70729;SDS011;58315;53.336;55.932;2023-03-14T07:30:26;4.32;;;1.80;;
70729;SDS011;58315;53.336;55.932;2023-03-14T07:32:53;4.70;;;2.03;;
70729;SDS011;58315;53.336;55.932;2023-03-14T07:35:24;3.85;;;2.00;;
70729;SDS011;58315;53.336;55.932;2023-03-14T07:37:51;4.00;;;2.00;;
70729;SDS011;58315;53.336;55.932;2023-03-14T07:40:23;5.15;;;2.33;;
70729;SDS011;58315;53.336;55.932;2023-03-14T07:42:49;2.70;;;1.80;;
70729;SDS011;58315;53.336;55.932;2023-03-14T07:45:26;3.90;;;1.70;;
70729;SDS011;58315;53.336;55.932;2023-03-14T07:47:52;3.70;;;1.73;;
70729;SDS011;58315;53.336;55.932;2023-03-14T07:50:18;4.18;;;2.08;;
70729;SDS011;58315;53.336;55.932;2023-03-14T07:52:44;3.25;;;1.88;;
70729;SDS011;58315;53.336;55.932;2023-03-14T07:55:10;2.33;;;1.35;;
70729;SDS011;58315;53.336;55.932;2023-03-14T07:57:39;4.10;;;2.17;;
70729;SDS011;58315;53.336;55.932;2023-03-14T08:00:05;3.60;;;2.10;;
70729;SDS011;58315;53.336;55.932;2023-03-14T08:02:39;3.90;;;1.95;;
70729;SDS011;58315;53.336;55.932;2023-03-14T08:05:06;3.05;;;1.55;;
70729;SDS011;58315;53.336;55.932;2023-03-14T08:07:32;4.10;;;2.13;;
70729;SDS011;58315;53.336;55.932;2023-03-14T08:10:01;4.07;;;1.50;;
70729;SDS011;58315;53.336;55.932;2023-03-14T08:12:27;4.18;;;2.35;;
70729;SDS011;58315;53.336;55.932;2023-03-14T08:14:53;3.35;;;1.83;;
70729;SDS011;58315;53.336;55.932;2023-03-14T08:17:22;3.95;;;2.25;;
70729;SDS011;58315;53.336;55.932;2023-03-14T08:19:52;2.72;;;1.48;;
70729;SDS011;58315;53.336;55.932;2023-03-14T08:22:18;5.65;;;2.22;;
70729;SDS011;58315;53.336;55.932;2023-03-14T08:24:44;4.00;;;1.92;;
70729;SDS011;58315;53.336;55.932;2023-03-14T08:27:09;3.75;;;1.90;;
70729;SDS011;58315;53.336;55.932;2023-03-14T08:29:35;4.28;;;1.60;;
70729;SDS011;58315;53.336;55.932;2023-03-14T08:32:01;4.00;;;1.73;;
70729;SDS011;58315;53.336;55.932;2023-03-14T08:34:32;4.18;;;1.83;;
70729;SDS011;58315;53.336;55.932;2023-03-14T08:36:58;4.68;;;1.80;;
70729;SDS011;58315;53.336;55.932;2023-03-14T08:39:25;3.45;;;1.88;;
70729;SDS011;58315;53.336;55.932;2023-03-14T08:41:51;3.40;;;1.60;;
70729;SDS011;58315;53.336;55.932;2023-03-14T08:44:17;4.70;;;2.17;;
70729;SDS011;58315;53.336;55.932;2023-03-14T08:46:43;4.18;;;1.95;;
70729;SDS011;58315;53.336;55.932;2023-03-14T08:49:08;4.93;;;2.10;;
70729;SDS011;58315;53.336;55.932;2023-03-14T08:51:34;3.50;;;1.85;;
70729;SDS011;58315;53.336;55.932;2023-03-14T08:54:00;3.75;;;1.92;;
70729;SDS011;58315;53.336;55.932;2023-03-14T08:56:26;3.35;;;1.70;;
70729;SDS011;58315;53.336;55.932;2023-03-14T08:58:52;2.80;;;1.60;;
70729;SDS011;58315;53.336;55.932;2023-03-14T09:01:18;6.18;;;2.72;;
70729;SDS011;58315;53.336;55.932;2023-03-14T09:03:49;9.43;;;2.38;;
70729;SDS011;58315;53.336;55.932;2023-03-14T09:06:15;3.85;;;1.83;;
70729;SDS011;58315;53.336;55.932;2023-03-14T09:08:43;4.82;;;1.80;;
70729;SDS011;58315;53.336;55.932;2023-03-14T09:11:09;2.78;;;1.83;;
70729;SDS011;58315;53.336;55.932;2023-03-14T09:13:35;5.15;;;2.38;;
70729;SDS011;58315;53.336;55.932;2023-03-14T09:16:01;4.03;;;1.60;;
70729;SDS011;58315;53.336;55.932;2023-03-14T09:18:28;4.97;;;2.22;;
70729;SDS011;58315;53.336;55.932;2023-03-14T09:20:55;2.78;;;1.55;;
70729;SDS011;58315;53.336;55.932;2023-03-14T09:23:21;4.28;;;2.03;;
70729;SDS011;58315;53.336;55.932;2023-03-14T09:25:47;4.00;;;2.17;;
70729;SDS011;58315;53.336;55.932;2023-03-14T09:28:13;4.90;;;2.20;;
70729;SDS011;58315;53.336;55.932;2023-03-14T09:30:39;3.95;;;2.13;;
70729;SDS011;58315;53.336;55.932;2023-03-14T09:33:05;2.80;;;1.70;;
70729;SDS011;58315;53.336;55.932;2023-03-14T09:35:33;3.00;;;1.63;;
70729;SDS011;58315;53.336;55.932;2023-03-14T09:37:59;6.90;;;1.98;;
70729;SDS011;58315;53.336;55.932;2023-03-14T09:40:27;4.00;;;1.60;;
70729;SDS011;58315;53.336;55.932;2023-03-14T09:42:59;4.28;;;1.85;;
70729;SDS011;58315;53.336;55.932;2023-03-14T09:45:26;4.13;;;2.03;;
70729;SDS011;58315;53.336;55.932;2023-03-14T09:47:55;5.18;;;1.85;;
70729;SDS011;58315;53.336;55.932;2023-03-14T09:50:23;5.53;;;2.00;;
70729;SDS011;58315;53.336;55.932;2023-03-14T09:52:59;3.05;;;1.60;;
70729;SDS011;58315;53.336;55.932;2023-03-14T09:55:47;3.13;;;1.42;;
70729;SDS011;58315;53.336;55.932;2023-03-14T09:58:22;3.85;;;1.80;;
70729;SDS011;58315;53.336;55.932;2023-03-14T10:00:49;5.15;;;1.85;;
70729;SDS011;58315;53.336;55.932;2023-03-14T10:03:21;5.32;;;2.38;;
70729;SDS011;58315;53.336;55.932;2023-03-14T10:05:52;3.10;;;2.03;;
70729;SDS011;58315;53.336;55.932;2023-03-14T10:08:20;5.32;;;2.05;;
70729;SDS011;58315;53.336;55.932;2023-03-14T10:10:46;4.60;;;1.70;;
70729;SDS011;58315;53.336;55.932;2023-03-14T10:13:25;6.45;;;2.00;;
70729;SDS011;58315;53.336;55.932;2023-03-14T10:15:54;4.30;;;2.00;;
70729;SDS011;58315;53.336;55.932;2023-03-14T10:18:22;5.60;;;2.30;;
70729;SDS011;58315;53.336;55.932;2023-03-14T10:20:49;2.95;;;1.75;;
70729;SDS011;58315;53.336;55.932;2023-03-14T10:23:27;7.53;;;2.72;;
70729;SDS011;58315;53.336;55.932;2023-03-14T10:26:11;4.65;;;2.17;;
70729;SDS011;58315;53.336;55.932;2023-03-14T10:28:43;3.00;;;1.45;;
70729;SDS011;58315;53.336;55.932;2023-03-14T10:31:10;2.28;;;1.40;;
70729;SDS011;58315;53.336;55.932;2023-03-14T10:33:37;3.88;;;1.88;;
70729;SDS011;58315;53.336;55.932;2023-03-14T10:36:23;4.72;;;1.80;;
70729;SDS011;58315;53.336;55.932;2023-03-14T10:38:57;4.25;;;1.42;;
70729;SDS011;58315;53.336;55.932;2023-03-14T10:41:30;4.22;;;1.92;;
70729;SDS011;58315;53.336;55.932;2023-03-14T10:43:59;3.88;;;1.58;;
70729;SDS011;58315;53.336;55.932;2023-03-14T10:46:29;2.50;;;1.23;;
70729;SDS011;58315;53.336;55.932;2023-03-14T10:49:23;2.92;;;1.50;;
70729;SDS011;58315;53.336;55.932;2023-03-14T10:51:56;4.05;;;2.08;;
70729;SDS011;58315;53.336;55.932;2023-03-14T10:54:29;4.55;;;2.15;;
70729;SDS011;58315;53.336;55.932;2023-03-14T10:56:59;5.03;;;1.70;;
70729;SDS011;58315;53.336;55.932;2023-03-14T10:59:29;3.92;;;1.80;;
70729;SDS011;58315;53.336;55.932;2023-03-14T11:02:15;3.83;;;2.10;;
70729;SDS011;58315;53.336;55.932;2023-03-14T11:08:07;5.07;;;1.90;;
70729;SDS011;58315;53.336;55.932;2023-03-14T11:10:40;5.72;;;1.83;;
70729;SDS011;58315;53.336;55.932;2023-03-14T11:13:21;5.05;;;2.17;;
70729;SDS011;58315;53.336;55.932;2023-03-14T11:15:58;4.05;;;1.70;;
70729;SDS011;58315;53.336;55.932;2023-03-14T11:27:06;3.85;;;1.50;;
70729;SDS011;58315;53.336;55.932;2023-03-14T11:29:55;2.83;;;1.48;;
70729;SDS011;58315;53.336;55.932;2023-03-14T11:34:57;5.28;;;1.35;;
70729;SDS011;58315;53.336;55.932;2023-03-14T11:37:32;6.35;;;1.77;;
70729;SDS011;58315;53.336;55.932;2023-03-14T11:45:42;3.50;;;1.35;;
70729;SDS011;58315;53.336;55.932;2023-03-14T11:48:10;2.70;;;1.52;;
70729;SDS011;58315;53.336;55.932;2023-03-14T11:50:43;5.68;;;1.23;;
70729;SDS011;58315;53.336;55.932;2023-03-14T11:56:01;5.55;;;1.52;;
70729;SDS011;58315;53.336;55.932;2023-03-14T11:58:34;6.28;;;2.20;;
70729;SDS011;58315;53.336;55.932;2023-03-14T12:01:05;3.65;;;1.20;;
70729;SDS011;58315;53.336;55.932;2023-03-14T12:03:40;4.70;;;1.83;;
70729;SDS011;58315;53.336;55.932;2023-03-14T12:08:49;2.63;;;1.70;;
70729;SDS011;58315;53.336;55.932;2023-03-14T12:13:58;1.88;;;1.08;;
70729;SDS011;58315;53.336;55.932;2023-03-14T12:18:50;3.42;;;1.60;;
70729;SDS011;58315;53.336;55.932;2023-03-14T12:21:18;2.22;;;1.23;;
70729;SDS011;58315;53.336;55.932;2023-03-14T12:23:48;3.75;;;1.10;;
70729;SDS011;58315;53.336;55.932;2023-03-14T12:26:19;3.33;;;1.40;;
70729;SDS011;58315;53.336;55.932;2023-03-14T12:29:14;5.47;;;1.42;;
70729;SDS011;58315;53.336;55.932;2023-03-14T12:31:46;5.25;;;1.45;;
70729;SDS011;58315;53.336;55.932;2023-03-14T12:39:33;2.35;;;1.17;;
70729;SDS011;58315;53.336;55.932;2023-03-14T12:50:53;2.63;;;1.33;;
70729;SDS011;58315;53.336;55.932;2023-03-14T12:58:38;1.05;;;0.63;;
70729;SDS011;58315;53.336;55.932;2023-03-14T13:01:14;2.63;;;1.20;;
70729;SDS011;58315;53.336;55.932;2023-03-14T13:03:52;2.22;;;1.17;;
70729;SDS011;58315;53.336;55.932;2023-03-14T13:11:52;2.70;;;1.30;;
70729;SDS011;58315;53.336;55.932;2023-03-14T13:14:19;2.20;;;1.13;;
70729;SDS011;58315;53.336;55.932;2023-03-14T13:16:49;1.90;;;1.02;;
70729;SDS011;58315;53.336;55.932;2023-03-14T13:19:22;1.98;;;1.10;;
70729;SDS011;58315;53.336;55.932;2023-03-14T13:21:53;2.70;;;1.02;;
70729;SDS011;58315;53.336;55.932;2023-03-14T13:24:27;3.38;;;1.25;;
70729;SDS011;58315;53.336;55.932;2023-03-14T13:26:54;3.03;;;1.30;;
70729;SDS011;58315;53.336;55.932;2023-03-14T13:29:27;4.63;;;1.65;;
70729;SDS011;58315;53.336;55.932;2023-03-14T13:31:58;2.15;;;1.20;;
70729;SDS011;58315;53.336;55.932;2023-03-14T13:34:26;2.88;;;1.48;;
70729;SDS011;58315;53.336;55.932;2023-03-14T13:36:56;7.70;;;1.30;;
70729;SDS011;58315;53.336;55.932;2023-03-14T13:39:23;2.55;;;0.98;;
70729;SDS011;58315;53.336;55.932;2023-03-14T13:41:51;3.80;;;1.35;;
70729;SDS011;58315;53.336;55.932;2023-03-14T13:46:57;2.15;;;1.05;;
70729;SDS011;58315;53.336;55.932;2023-03-14T13:49:25;2.38;;;1.15;;
70729;SDS011;58315;53.336;55.932;2023-03-14T13:51:54;2.13;;;1.00;;
70729;SDS011;58315;53.336;55.932;2023-03-14T13:54:20;3.80;;;1.42;;
70729;SDS011;58315;53.336;55.932;2023-03-14T13:56:48;2.47;;;1.33;;
70729;SDS011;58315;53.336;55.932;2023-03-14T13:59:21;1.80;;;1.08;;
70729;SDS011;58315;53.336;55.932;2023-03-14T14:01:47;3.92;;;1.20;;
70729;SDS011;58315;53.336;55.932;2023-03-14T14:04:17;3.50;;;1.38;;
70729;SDS011;58315;53.336;55.932;2023-03-14T14:06:52;3.58;;;1.55;;
70729;SDS011;58315;53.336;55.932;2023-03-14T14:09:20;3.25;;;1.30;;
70729;SDS011;58315;53.336;55.932;2023-03-14T14:12:11;2.35;;;1.20;;
70729;SDS011;58315;53.336;55.932;2023-03-14T14:17:11;3.50;;;1.63;;
70729;SDS011;58315;53.336;55.932;2023-03-14T14:19:41;3.60;;;1.70;;
70729;SDS011;58315;53.336;55.932;2023-03-14T14:22:11;3.58;;;1.60;;
70729;SDS011;58315;53.336;55.932;2023-03-14T14:24:37;4.13;;;1.75;;
70729;SDS011;58315;53.336;55.932;2023-03-14T14:29:38;3.78;;;1.20;;
70729;SDS011;58315;53.336;55.932;2023-03-14T14:34:40;3.63;;;1.50;;
70729;SDS011;58315;53.336;55.932;2023-03-14T14:37:21;3.28;;;1.42;;
70729;SDS011;58315;53.336;55.932;2023-03-14T14:39:50;2.92;;;1.42;;
70729;SDS011;58315;53.336;55.932;2023-03-14T14:42:19;4.15;;;1.40;;
70729;SDS011;58315;53.336;55.932;2023-03-14T14:47:20;3.15;;;1.08;;
70729;SDS011;58315;53.336;55.932;2023-03-14T14:49:49;1.92;;;0.95;;
70729;SDS011;58315;53.336;55.932;2023-03-14T14:52:18;3.65;;;1.48;;
70729;SDS011;58315;53.336;55.932;2023-03-14T14:55:00;2.85;;;1.38;;
70729;SDS011;58315;53.336;55.932;2023-03-14T14:57:31;1.48;;;0.98;;
70729;SDS011;58315;53.336;55.932;2023-03-14T15:00:03;7.75;;;1.42;;
70729;SDS011;58315;53.336;55.932;2023-03-14T15:02:50;2.40;;;1.40;;
70729;SDS011;58315;53.336;55.932;2023-03-14T15:05:19;4.22;;;1.60;;
70729;SDS011;58315;53.336;55.932;2023-03-14T15:07:46;4.38;;;1.50;;
70729;SDS011;58315;53.336;55.932;2023-03-14T15:10:14;2.92;;;1.52;;
70729;SDS011;58315;53.336;55.932;2023-03-14T15:12:42;2.70;;;1.27;;
70729;SDS011;58315;53.336;55.932;2023-03-14T15:15:09;2.42;;;1.20;;
70729;SDS011;58315;53.336;55.932;2023-03-14T15:17:37;3.22;;;1.52;;
70729;SDS011;58315;53.336;55.932;2023-03-14T15:20:04;2.17;;;1.23;;
70729;SDS011;58315;53.336;55.932;2023-03-14T15:22:31;3.72;;;1.40;;
70729;SDS011;58315;53.336;55.932;2023-03-14T15:24:57;6.47;;;1.65;;
70729;SDS011;58315;53.336;55.932;2023-03-14T15:27:23;3.92;;;1.60;;
70729;SDS011;58315;53.336;55.932;2023-03-14T15:29:50;3.67;;;1.77;;
70729;SDS011;58315;53.336;55.932;2023-03-14T15:32:16;7.65;;;2.70;;
70729;SDS011;58315;53.336;55.932;2023-03-14T15:34:43;14.05;;;2.30;;
70729;SDS011;58315;53.336;55.932;2023-03-14T15:37:13;4.05;;;1.83;;
70729;SDS011;58315;53.336;55.932;2023-03-14T15:39:41;3.88;;;1.98;;
70729;SDS011;58315;53.336;55.932;2023-03-14T15:42:08;12.85;;;2.35;;
70729;SDS011;58315;53.336;55.932;2023-03-14T15:44:34;3.90;;;1.98;;
70729;SDS011;58315;53.336;55.932;2023-03-14T15:47:00;8.88;;;2.58;;
70729;SDS011;58315;53.336;55.932;2023-03-14T15:49:27;14.40;;;2.55;;
70729;SDS011;58315;53.336;55.932;2023-03-14T15:51:53;17.92;;;2.25;;
70729;SDS011;58315;53.336;55.932;2023-03-14T15:54:19;4.88;;;1.67;;
70729;SDS011;58315;53.336;55.932;2023-03-14T15:56:45;4.07;;;1.52;;
70729;SDS011;58315;53.336;55.932;2023-03-14T15:59:11;2.60;;;1.30;;
70729;SDS011;58315;53.336;55.932;2023-03-14T16:01:37;3.15;;;1.50;;
70729;SDS011;58315;53.336;55.932;2023-03-14T16:04:03;2.50;;;1.17;;
70729;SDS011;58315;53.336;55.932;2023-03-14T16:06:29;1.50;;;0.95;;
70729;SDS011;58315;53.336;55.932;2023-03-14T16:08:56;3.88;;;1.85;;